Time;durP1;ratioP1;P1;durP2;ratioP2;P2;SDS_P1;SDS_P2;PMS_P1;PMS_P2;Temp;Humidity;BMP_temperature;BMP_pressure;BME280_temperature;BME280_humidity;BME280_pressure;Samples;Min_cycle;Max_cycle;Signal;HPM_P1;HPM_P2
2022/09/03 00:01:59;;;;;;;10.32;9.32;;;;;;;;;;5090708;28;20232;-80
2022/09/03 00:04:29;;;;;;;10.85;9.43;;;;;;;;;;5100614;28;20224;-80
2022/09/03 00:07:01;;;;;;;12.50;9.10;;;;;;;;;;5109477;28;20206;-79
2022/09/03 00:09:30;;;;;;;11.55;9.90;;;;;;;;;;5104737;28;20198;-80
2022/09/03 00:12:01;;;;;;;10.13;9.18;;;;;;;;;;5099633;28;20301;-79
2022/09/03 00:14:33;;;;;;;12.98;9.93;;;;;;;;;;5104457;28;20681;-80
2022/09/03 00:17:04;;;;;;;11.43;9.57;;;;;;;;;;5103732;28;20739;-80
2022/09/03 00:19:33;;;;;;;11.30;10.10;;;;;;;;;;5104654;28;20285;-80
2022/09/03 00:22:01;;;;;;;12.43;10.45;;;;;;;;;;5103810;28;20205;-80
2022/09/03 00:24:30;;;;;;;11.45;10.07;;;;;;;;;;5101274;28;20221;-80
2022/09/03 00:27:00;;;;;;;10.80;9.65;;;;;;;;;;5104874;28;20222;-80
2022/09/03 00:29:29;;;;;;;11.27;10.13;;;;;;;;;;5101911;28;20198;-80
2022/09/03 00:31:58;;;;;;;11.55;10.38;;;;;;;;;;5079012;28;20250;-80
2022/09/03 00:34:31;;;;;;;12.52;10.40;;;;;;;;;;5112644;28;20232;-80
2022/09/03 00:36:58;;;;;;;13.18;10.20;;;;;;;;;;5102770;28;20201;-80
2022/09/03 00:39:26;;;;;;;12.57;10.45;;;;;;;;;;5097959;28;20230;-80
2022/09/03 00:42:05;;;;;;;11.27;10.15;;;;;;;;;;5097052;28;20302;-79
2022/09/03 00:44:47;;;;;;;11.65;10.45;;;;;;;;;;5104765;28;20669;-79
2022/09/03 00:47:18;;;;;;;11.95;10.57;;;;;;;;;;5099620;28;20267;-80
2022/09/03 00:49:53;;;;;;;11.45;10.23;;;;;;;;;;5101619;28;20199;-79
2022/09/03 00:52:25;;;;;;;11.53;10.33;;;;;;;;;;5099929;28;20224;-80
2022/09/03 00:54:55;;;;;;;12.23;10.68;;;;;;;;;;5101967;28;20236;-80
2022/09/03 00:57:31;;;;;;;12.05;10.70;;;;;;;;;;5091470;28;20217;-80
2022/09/03 01:00:02;;;;;;;11.80;10.60;;;;;;;;;;5101343;28;20236;-80
2022/09/03 01:02:34;;;;;;;12.57;11.27;;;;;;;;;;5102869;28;20612;-80
2022/09/03 01:05:05;;;;;;;13.40;11.73;;;;;;;;;;5093393;28;20252;-80
2022/09/03 01:07:36;;;;;;;11.95;10.52;;;;;;;;;;5103774;28;20279;-80
2022/09/03 01:10:08;;;;;;;11.50;10.40;;;;;;;;;;5095973;28;20230;-80
2022/09/03 01:12:38;;;;;;;12.00;10.77;;;;;;;;;;5100513;28;20297;-79
2022/09/03 01:15:09;;;;;;;12.82;11.48;;;;;;;;;;5102628;28;20280;-79
2022/09/03 01:17:43;;;;;;;15.17;11.43;;;;;;;;;;5100266;28;20281;-79
2022/09/03 01:20:21;;;;;;;13.55;12.25;;;;;;;;;;5100885;28;20226;-79
2022/09/03 01:23:03;;;;;;;13.02;11.65;;;;;;;;;;5101272;28;20236;-80
2022/09/03 01:25:36;;;;;;;14.00;12.50;;;;;;;;;;5099221;28;20632;-80
2022/09/03 01:28:15;;;;;;;14.93;12.87;;;;;;;;;;5103552;28;20656;-80
2022/09/03 01:30:47;;;;;;;15.15;12.18;;;;;;;;;;5092402;28;20744;-80
2022/09/03 01:33:19;;;;;;;18.77;13.40;;;;;;;;;;5095995;28;20301;-80
2022/09/03 01:35:48;;;;;;;15.50;12.50;;;;;;;;;;5091287;28;20226;-80
2022/09/03 01:38:19;;;;;;;13.90;12.48;;;;;;;;;;5098397;28;20234;-79
2022/09/03 01:40:51;;;;;;;15.55;12.38;;;;;;;;;;5103022;28;20194;-80
2022/09/03 01:43:31;;;;;;;14.88;12.05;;;;;;;;;;5101664;28;20228;-80
2022/09/03 01:46:01;;;;;;;14.90;12.95;;;;;;;;;;5088797;28;20689;-79
2022/09/03 01:48:38;;;;;;;20.20;12.63;;;;;;;;;;5101351;28;20222;-80
2022/09/03 01:51:10;;;;;;;15.02;13.45;;;;;;;;;;5093478;28;20222;-80
2022/09/03 01:53:45;;;;;;;14.80;13.02;;;;;;;;;;5104443;28;20210;-79
2022/09/03 01:56:18;;;;;;;15.60;13.35;;;;;;;;;;5097101;28;20472;-79
2022/09/03 01:58:50;;;;;;;15.45;13.77;;;;;;;;;;5103443;28;20314;-80
2022/09/03 02:01:20;;;;;;;15.43;12.48;;;;;;;;;;5100778;28;20297;-80
2022/09/03 02:03:49;;;;;;;14.68;12.88;;;;;;;;;;5103383;28;20198;-80
2022/09/03 02:06:19;;;;;;;13.98;12.45;;;;;;;;;;5105363;28;20221;-80
2022/09/03 02:08:46;;;;;;;14.90;13.20;;;;;;;;;;5103707;28;20195;-80
2022/09/03 02:11:13;;;;;;;14.40;12.70;;;;;;;;;;5104552;28;20613;-80
2022/09/03 02:13:42;;;;;;;15.27;12.20;;;;;;;;;;5104025;28;20656;-80
2022/09/03 02:16:14;;;;;;;13.70;12.30;;;;;;;;;;5106975;28;20198;-80
2022/09/03 02:18:42;;;;;;;14.60;12.45;;;;;;;;;;5103741;28;20214;-80
2022/09/03 02:21:10;;;;;;;13.68;12.13;;;;;;;;;;5100789;28;20722;-79
2022/09/03 02:23:39;;;;;;;15.55;12.05;;;;;;;;;;5107705;28;20573;-79
2022/09/03 02:26:07;;;;;;;13.95;11.73;;;;;;;;;;5102332;28;20233;-80
2022/09/03 02:28:34;;;;;;;13.73;11.90;;;;;;;;;;5097465;28;20279;-80
2022/09/03 02:31:02;;;;;;;13.10;11.80;;;;;;;;;;5103374;28;20198;-80
2022/09/03 02:33:32;;;;;;;16.55;11.82;;;;;;;;;;5111057;28;20221;-80
2022/09/03 02:35:59;;;;;;;13.38;11.55;;;;;;;;;;5096877;28;20198;-80
2022/09/03 02:38:27;;;;;;;13.70;10.93;;;;;;;;;;5096917;28;20252;-80
2022/09/03 02:40:54;;;;;;;12.15;10.68;;;;;;;;;;5094987;28;20226;-80
2022/09/03 02:43:24;;;;;;;13.15;10.68;;;;;;;;;;5099226;28;20190;-80
2022/09/03 02:45:53;;;;;;;12.48;9.73;;;;;;;;;;5104441;28;20232;-80
2022/09/03 02:48:23;;;;;;;13.02;10.90;;;;;;;;;;5103115;28;20222;-80
2022/09/03 02:50:51;;;;;;;13.07;11.05;;;;;;;;;;5103382;28;20235;-80
2022/09/03 02:53:19;;;;;;;11.23;10.02;;;;;;;;;;5108275;28;20206;-80
2022/09/03 02:55:46;;;;;;;10.90;9.80;;;;;;;;;;5103341;28;20233;-80
2022/09/03 02:58:13;;;;;;;11.82;10.38;;;;;;;;;;5104686;28;20245;-80
2022/09/03 03:00:40;;;;;;;11.90;10.63;;;;;;;;;;5104815;28;20289;-80
2022/09/03 03:03:08;;;;;;;12.50;11.20;;;;;;;;;;5095478;28;20282;-80
2022/09/03 03:05:42;;;;;;;17.73;12.88;;;;;;;;;;5095956;28;20206;-80
2022/09/03 03:08:13;;;;;;;16.55;13.30;;;;;;;;;;5101628;28;20202;-80
2022/09/03 03:10:41;;;;;;;16.23;13.82;;;;;;;;;;5106201;28;20201;-79
2022/09/03 03:13:08;;;;;;;19.98;14.52;;;;;;;;;;5104546;27;20209;-79
2022/09/03 03:15:35;;;;;;;18.90;14.23;;;;;;;;;;5105605;28;20212;-80
2022/09/03 03:18:02;;;;;;;19.17;14.93;;;;;;;;;;5105642;28;20228;-80
2022/09/03 03:20:30;;;;;;;27.52;15.48;;;;;;;;;;5107720;28;20229;-80
2022/09/03 03:22:57;;;;;;;29.63;14.80;;;;;;;;;;5102650;28;20248;-80
2022/09/03 03:25:26;;;;;;;20.50;15.23;;;;;;;;;;5094052;28;20222;-80
2022/09/03 03:27:55;;;;;;;22.60;15.05;;;;;;;;;;5108413;28;20267;-79
2022/09/03 03:30:23;;;;;;;25.30;15.02;;;;;;;;;;5105357;28;20299;-80
2022/09/03 03:32:53;;;;;;;17.63;14.87;;;;;;;;;;5101670;28;20258;-80
2022/09/03 03:35:20;;;;;;;18.87;14.47;;;;;;;;;;5102375;28;20229;-79
2022/09/03 03:37:47;;;;;;;27.77;14.75;;;;;;;;;;5099940;28;20241;-79
2022/09/03 03:40:15;;;;;;;23.23;14.77;;;;;;;;;;5100563;28;20613;-80
2022/09/03 03:42:43;;;;;;;18.77;14.83;;;;;;;;;;5092579;28;20237;-79
2022/09/03 03:45:11;;;;;;;19.03;14.10;;;;;;;;;;5094912;28;20681;-80
2022/09/03 03:47:38;;;;;;;27.87;15.03;;;;;;;;;;5104000;28;20226;-79
2022/09/03 03:50:06;;;;;;;25.87;13.40;;;;;;;;;;5103991;28;20229;-79
2022/09/03 03:52:33;;;;;;;24.70;13.50;;;;;;;;;;5110617;28;20648;-80
2022/09/03 03:55:00;;;;;;;18.37;13.97;;;;;;;;;;5104329;28;20304;-79
2022/09/03 03:57:30;;;;;;;17.37;13.63;;;;;;;;;;5089147;28;20277;-80
2022/09/03 03:59:59;;;;;;;22.13;13.57;;;;;;;;;;5098239;28;20271;-79
2022/09/03 04:02:26;;;;;;;16.70;13.83;;;;;;;;;;5105706;28;20750;-80
2022/09/03 04:04:53;;;;;;;16.97;13.83;;;;;;;;;;5100545;28;20255;-80
2022/09/03 04:07:20;;;;;;;18.07;14.23;;;;;;;;;;5106509;28;20197;-80
2022/09/03 04:09:48;;;;;;;22.00;13.93;;;;;;;;;;5097563;28;20240;-79
2022/09/03 04:12:15;;;;;;;18.63;14.73;;;;;;;;;;5101894;28;20240;-79
2022/09/03 04:14:42;;;;;;;18.43;14.80;;;;;;;;;;5096942;28;20575;-80
2022/09/03 04:17:11;;;;;;;21.87;14.77;;;;;;;;;;5104540;28;20230;-80
2022/09/03 04:19:38;;;;;;;24.10;14.60;;;;;;;;;;5102911;28;20240;-79
2022/09/03 04:22:05;;;;;;;22.00;15.00;;;;;;;;;;5103857;28;20230;-80
2022/09/03 04:24:32;;;;;;;18.40;14.13;;;;;;;;;;5106091;28;20231;-79
2022/09/03 04:27:00;;;;;;;20.30;14.57;;;;;;;;;;5107288;28;20752;-80
2022/09/03 04:29:29;;;;;;;26.10;14.33;;;;;;;;;;5095598;28;20196;-80
2022/09/03 04:34:43;;;;;;;27.23;14.30;;;;;;;;;;5102568;28;20704;-80
2022/09/03 04:37:10;;;;;;;20.40;13.97;;;;;;;;;;5101086;28;20281;-79
2022/09/03 04:39:37;;;;;;;31.60;14.80;;;;;;;;;;5100383;28;20233;-79
2022/09/03 04:42:05;;;;;;;25.23;14.53;;;;;;;;;;5103449;28;20929;-79
2022/09/03 04:44:36;;;;;;;22.73;14.73;;;;;;;;;;5103434;28;20230;-79
2022/09/03 04:47:03;;;;;;;23.83;14.87;;;;;;;;;;5092292;28;20670;-79
2022/09/03 04:49:30;;;;;;;23.33;15.77;;;;;;;;;;5106015;28;20193;-80
2022/09/03 04:51:59;;;;;;;22.37;14.70;;;;;;;;;;5102028;28;20201;-80
2022/09/03 04:54:26;;;;;;;20.00;14.40;;;;;;;;;;5100228;28;20245;-79
2022/09/03 04:56:53;;;;;;;20.97;14.27;;;;;;;;;;5100534;28;20237;-80
2022/09/03 04:59:20;;;;;;;18.13;13.77;;;;;;;;;;5099642;28;20298;-80
2022/09/03 05:01:48;;;;;;;19.60;14.07;;;;;;;;;;5098329;28;20244;-80
2022/09/03 05:04:15;;;;;;;25.37;15.73;;;;;;;;;;5100473;28;20230;-80
2022/09/03 05:06:44;;;;;;;20.37;14.90;;;;;;;;;;5099830;28;20277;-79
2022/09/03 05:09:12;;;;;;;19.57;14.50;;;;;;;;;;5100156;28;20198;-80
2022/09/03 05:11:39;;;;;;;19.40;14.90;;;;;;;;;;5104711;28;20619;-80
2022/09/03 05:14:10;;;;;;;22.50;16.37;;;;;;;;;;5097426;28;20254;-80
2022/09/03 05:16:37;;;;;;;22.93;15.70;;;;;;;;;;5102133;28;20201;-80
2022/09/03 05:19:06;;;;;;;25.70;17.67;;;;;;;;;;5099559;28;20226;-79
2022/09/03 05:21:35;;;;;;;24.20;16.93;;;;;;;;;;5099467;28;20677;-79
2022/09/03 05:24:03;;;;;;;23.23;17.07;;;;;;;;;;5102530;28;20200;-79
2022/09/03 05:26:32;;;;;;;24.33;17.70;;;;;;;;;;5103467;28;20281;-79
2022/09/03 05:29:01;;;;;;;24.43;16.97;;;;;;;;;;5090342;28;20198;-80
2022/09/03 05:31:30;;;;;;;23.70;17.23;;;;;;;;;;5105627;28;20224;-80
2022/09/03 05:33:58;;;;;;;22.60;16.60;;;;;;;;;;5104877;28;20237;-80
2022/09/03 05:36:26;;;;;;;24.30;15.73;;;;;;;;;;5100902;28;20208;-80
2022/09/03 05:38:54;;;;;;;24.17;16.27;;;;;;;;;;5094970;28;20677;-80
2022/09/03 05:41:22;;;;;;;22.07;16.37;;;;;;;;;;5106176;28;20830;-79
2022/09/03 05:43:54;;;;;;;22.37;15.83;;;;;;;;;;5106530;28;20286;-80
2022/09/03 05:46:25;;;;;;;22.30;16.10;;;;;;;;;;5095918;28;20201;-79
2022/09/03 05:48:52;;;;;;;21.23;16.13;;;;;;;;;;5096843;28;20206;-80
2022/09/03 05:51:20;;;;;;;21.63;16.07;;;;;;;;;;5108317;28;20194;-80
2022/09/03 05:53:48;;;;;;;20.17;15.37;;;;;;;;;;5096125;28;20218;-80
2022/09/03 05:56:16;;;;;;;21.47;15.53;;;;;;;;;;5104305;28;20284;-79
2022/09/03 05:58:45;;;;;;;20.10;15.83;;;;;;;;;;5116202;28;20307;-80
2022/09/03 06:01:14;;;;;;;19.73;14.80;;;;;;;;;;5097012;28;20199;-80
2022/09/03 06:03:42;;;;;;;18.70;15.00;;;;;;;;;;5098740;28;20297;-80
2022/09/03 06:06:09;;;;;;;21.67;14.57;;;;;;;;;;5097302;28;20263;-80
2022/09/03 06:08:38;;;;;;;18.85;14.73;;;;;;;;;;5087780;28;20207;-79
2022/09/03 06:11:05;;;;;;;18.00;14.02;;;;;;;;;;5094928;28;20198;-79
2022/09/03 06:13:32;;;;;;;17.92;14.00;;;;;;;;;;5106606;28;20214;-79
2022/09/03 06:16:00;;;;;;;18.10;14.33;;;;;;;;;;5114991;28;20201;-79
2022/09/03 06:18:29;;;;;;;16.42;13.90;;;;;;;;;;5115015;28;20198;-79
2022/09/03 06:20:56;;;;;;;17.67;13.65;;;;;;;;;;5096315;28;20230;-79
2022/09/03 06:23:24;;;;;;;16.85;13.45;;;;;;;;;;5094992;28;20241;-79
2022/09/03 06:26:00;;;;;;;16.20;13.20;;;;;;;;;;5111284;28;20255;-79
2022/09/03 06:28:27;;;;;;;16.02;13.63;;;;;;;;;;5094904;28;20277;-79
2022/09/03 06:30:55;;;;;;;15.93;13.63;;;;;;;;;;5101463;28;20285;-79
2022/09/03 06:33:23;;;;;;;15.63;13.40;;;;;;;;;;5097552;28;20198;-79
2022/09/03 06:35:56;;;;;;;15.15;13.07;;;;;;;;;;5110492;28;20202;-79
2022/09/03 06:38:24;;;;;;;16.30;13.20;;;;;;;;;;5089111;28;20620;-79
2022/09/03 06:40:55;;;;;;;16.30;13.63;;;;;;;;;;5103612;28;20198;-79
2022/09/03 06:43:23;;;;;;;19.90;15.00;;;;;;;;;;5093791;28;20228;-79
2022/09/03 06:45:54;;;;;;;19.52;14.60;;;;;;;;;;5102821;28;20233;-78
2022/09/03 06:48:21;;;;;;;16.65;14.25;;;;;;;;;;5086206;28;20205;-78
2022/09/03 06:50:57;;;;;;;15.77;14.07;;;;;;;;;;5103765;28;20295;-79
2022/09/03 06:53:25;;;;;;;18.50;15.45;;;;;;;;;;5102758;28;20225;-79
2022/09/03 06:55:56;;;;;;;19.63;15.82;;;;;;;;;;5098299;28;20547;-78
2022/09/03 06:58:23;;;;;;;18.52;14.63;;;;;;;;;;5102449;28;20256;-78
2022/09/03 07:00:52;;;;;;;14.85;12.80;;;;;;;;;;5104076;28;20685;-79
2022/09/03 07:03:19;;;;;;;14.50;12.00;;;;;;;;;;5101973;28;20202;-78
2022/09/03 07:05:47;;;;;;;13.23;11.50;;;;;;;;;;5094045;28;20194;-79
2022/09/03 07:08:15;;;;;;;11.75;10.55;;;;;;;;;;5104705;28;20365;-79
2022/09/03 07:10:47;;;;;;;13.32;10.95;;;;;;;;;;5105803;28;20281;-79
2022/09/03 07:13:15;;;;;;;12.75;10.60;;;;;;;;;;5107508;28;20680;-78
2022/09/03 07:15:42;;;;;;;14.10;11.48;;;;;;;;;;5100768;28;20250;-78
2022/09/03 07:18:09;;;;;;;15.15;12.93;;;;;;;;;;5097695;28;20230;-78
2022/09/03 07:20:36;;;;;;;15.23;13.60;;;;;;;;;;5096088;28;20285;-78
2022/09/03 07:23:03;;;;;;;16.35;14.18;;;;;;;;;;5110153;28;20226;-78
2022/09/03 07:25:32;;;;;;;18.55;15.32;;;;;;;;;;5098135;28;20227;-78
2022/09/03 07:28:00;;;;;;;19.30;15.98;;;;;;;;;;5098805;28;20738;-78
2022/09/03 07:30:27;;;;;;;21.65;17.20;;;;;;;;;;5105360;28;20360;-78
2022/09/03 07:32:54;;;;;;;19.65;17.10;;;;;;;;;;5101994;28;20230;-77
2022/09/03 07:35:24;;;;;;;21.95;17.33;;;;;;;;;;5097448;28;20301;-77
2022/09/03 07:37:53;;;;;;;19.88;17.70;;;;;;;;;;5089741;28;20210;-77
2022/09/03 07:40:21;;;;;;;18.73;15.77;;;;;;;;;;5095215;28;20302;-77
2022/09/03 07:42:50;;;;;;;21.20;17.27;;;;;;;;;;5083481;28;20322;-78
2022/09/03 07:45:17;;;;;;;21.05;17.38;;;;;;;;;;5101088;28;20214;-78
2022/09/03 07:47:49;;;;;;;23.10;18.10;;;;;;;;;;5086349;28;20289;-78
2022/09/03 07:50:16;;;;;;;19.70;17.42;;;;;;;;;;5088939;28;20206;-78
2022/09/03 07:52:43;;;;;;;23.17;17.45;;;;;;;;;;5094467;28;20721;-78
2022/09/03 07:55:11;;;;;;;21.52;18.48;;;;;;;;;;5089165;28;20253;-77
2022/09/03 07:57:38;;;;;;;21.70;19.02;;;;;;;;;;5099325;28;20233;-78
2022/09/03 08:00:08;;;;;;;22.73;19.77;;;;;;;;;;5099232;28;20223;-78
2022/09/03 08:02:36;;;;;;;21.85;19.23;;;;;;;;;;5096411;28;20553;-78
2022/09/03 08:05:03;;;;;;;23.85;19.85;;;;;;;;;;5083248;28;20226;-78
2022/09/03 08:07:30;;;;;;;21.77;19.48;;;;;;;;;;5093150;28;20198;-78
2022/09/03 08:09:57;;;;;;;22.88;20.42;;;;;;;;;;5092924;28;20244;-78
2022/09/03 08:12:25;;;;;;;23.92;21.30;;;;;;;;;;5096707;28;20190;-78
2022/09/03 08:14:52;;;;;;;22.88;19.05;;;;;;;;;;5090777;28;20306;-78
2022/09/03 08:17:21;;;;;;;18.23;16.33;;;;;;;;;;5097176;28;20290;-78
2022/09/03 08:19:48;;;;;;;20.70;17.98;;;;;;;;;;5098503;28;20715;-78
2022/09/03 08:22:15;;;;;;;18.13;16.27;;;;;;;;;;5106233;28;20226;-78
2022/09/03 08:24:42;;;;;;;17.60;15.77;;;;;;;;;;5100230;28;20253;-78
2022/09/03 08:27:09;;;;;;;15.70;14.02;;;;;;;;;;5091460;28;20305;-78
2022/09/03 08:29:37;;;;;;;13.02;11.65;;;;;;;;;;5103007;28;20227;-79
2022/09/03 08:32:05;;;;;;;13.45;12.15;;;;;;;;;;5100035;28;20202;-78
2022/09/03 08:34:33;;;;;;;13.68;12.35;;;;;;;;;;5094551;28;20218;-79
2022/09/03 08:37:01;;;;;;;12.43;11.23;;;;;;;;;;5092095;28;20229;-79
2022/09/03 08:39:30;;;;;;;11.50;10.40;;;;;;;;;;5092224;28;20210;-79
2022/09/03 08:42:17;;;;;;;10.55;9.57;;;;;;;;;;5108520;28;20238;-79
2022/09/03 08:44:46;;;;;;;12.40;11.30;;;;;;;;;;5094773;28;20190;-79
2022/09/03 08:47:16;;;;;;;12.00;10.90;;;;;;;;;;5086802;28;20209;-79
2022/09/03 08:49:46;;;;;;;12.75;11.55;;;;;;;;;;5092910;28;20226;-79
2022/09/03 08:52:19;;;;;;;12.77;11.57;;;;;;;;;;5111754;28;20288;-79
2022/09/03 08:54:48;;;;;;;13.60;12.40;;;;;;;;;;5102957;28;20222;-78
2022/09/03 08:57:15;;;;;;;15.68;12.52;;;;;;;;;;5094425;28;20248;-79
2022/09/03 08:59:43;;;;;;;13.50;12.20;;;;;;;;;;5093162;28;20237;-79
2022/09/03 09:02:18;;;;;;;15.13;13.63;;;;;;;;;;5099707;28;20203;-79
2022/09/03 09:04:54;;;;;;;13.95;12.52;;;;;;;;;;5091618;28;20659;-79
2022/09/03 09:07:26;;;;;;;14.35;12.73;;;;;;;;;;5104606;28;20624;-79
2022/09/03 09:09:57;;;;;;;14.10;12.73;;;;;;;;;;5105802;28;20233;-79
2022/09/03 09:12:30;;;;;;;12.45;11.30;;;;;;;;;;5097807;28;20716;-79
2022/09/03 09:15:07;;;;;;;13.68;11.98;;;;;;;;;;5089997;28;20223;-79
2022/09/03 09:17:52;;;;;;;14.10;12.63;;;;;;;;;;5086316;28;20233;-79
2022/09/03 09:20:25;;;;;;;12.93;11.63;;;;;;;;;;5096698;28;20234;-79
2022/09/03 09:22:55;;;;;;;10.77;9.77;;;;;;;;;;5098261;28;20233;-79
2022/09/03 09:25:25;;;;;;;12.07;10.98;;;;;;;;;;5093061;28;20214;-78
2022/09/03 09:27:55;;;;;;;11.75;10.57;;;;;;;;;;5105159;28;20557;-79
2022/09/03 09:30:22;;;;;;;11.25;10.25;;;;;;;;;;5099982;28;20281;-80
2022/09/03 09:32:49;;;;;;;11.90;10.80;;;;;;;;;;5091796;28;20233;-79
2022/09/03 09:35:18;;;;;;;11.93;10.70;;;;;;;;;;5107784;28;20217;-79
2022/09/03 09:38:02;;;;;;;12.38;11.18;;;;;;;;;;5090054;28;20230;-79
2022/09/03 09:40:34;;;;;;;12.73;11.43;;;;;;;;;;5095082;28;20297;-78
2022/09/03 09:43:05;;;;;;;13.65;12.35;;;;;;;;;;5101822;28;20229;-78
2022/09/03 09:45:33;;;;;;;13.75;12.32;;;;;;;;;;5094816;28;20281;-78
2022/09/03 09:48:00;;;;;;;14.77;13.27;;;;;;;;;;5105393;28;20198;-79
2022/09/03 09:50:27;;;;;;;14.80;13.32;;;;;;;;;;5099985;28;20206;-79
2022/09/03 09:53:04;;;;;;;14.43;12.95;;;;;;;;;;5099919;28;20616;-79
2022/09/03 09:55:32;;;;;;;15.77;14.07;;;;;;;;;;5087097;28;20222;-79
2022/09/03 09:58:08;;;;;;;14.70;13.20;;;;;;;;;;5084993;28;20241;-79
2022/09/03 10:00:36;;;;;;;16.30;13.20;;;;;;;;;;5099780;28;20271;-79
2022/09/03 10:03:07;;;;;;;17.00;15.15;;;;;;;;;;5105620;28;20198;-79
2022/09/03 10:05:36;;;;;;;19.85;17.48;;;;;;;;;;5104164;28;20204;-80
2022/09/03 10:08:06;;;;;;;15.68;14.10;;;;;;;;;;5098687;28;20202;-80
2022/09/03 10:10:36;;;;;;;13.73;12.38;;;;;;;;;;5088003;28;20198;-80
2022/09/03 10:13:08;;;;;;;13.48;11.55;;;;;;;;;;5097783;28;20198;-81
2022/09/03 10:15:38;;;;;;;16.92;12.48;;;;;;;;;;5092406;28;20784;-80
2022/09/03 10:18:09;;;;;;;14.32;12.82;;;;;;;;;;5097342;28;20241;-80
2022/09/03 10:20:41;;;;;;;17.25;12.27;;;;;;;;;;5112343;28;20733;-80
2022/09/03 10:23:14;;;;;;;11.82;10.68;;;;;;;;;;5105692;28;20201;-80
2022/09/03 10:25:52;;;;;;;11.52;10.32;;;;;;;;;;5104312;28;20271;-80
2022/09/03 10:28:23;;;;;;;11.38;10.27;;;;;;;;;;5110587;28;20671;-80
2022/09/03 10:30:59;;;;;;;13.07;11.75;;;;;;;;;;5098412;28;20194;-81
2022/09/03 10:33:28;;;;;;;11.68;10.45;;;;;;;;;;5099052;28;20225;-80
2022/09/03 10:36:02;;;;;;;12.30;11.00;;;;;;;;;;5098660;28;20222;-81
2022/09/03 10:38:35;;;;;;;12.77;11.50;;;;;;;;;;5103458;28;20240;-82
2022/09/03 10:41:09;;;;;;;12.98;11.55;;;;;;;;;;5098541;28;20235;-80
2022/09/03 10:43:45;;;;;;;12.23;10.93;;;;;;;;;;5095995;28;20228;-81
2022/09/03 10:46:18;;;;;;;11.52;10.27;;;;;;;;;;5099282;28;20783;-82
2022/09/03 10:48:54;;;;;;;10.45;9.43;;;;;;;;;;5105684;28;20213;-82
2022/09/03 10:51:24;;;;;;;9.77;8.48;;;;;;;;;;5106666;28;20222;-81
2022/09/03 10:54:04;;;;;;;9.90;7.47;;;;;;;;;;5103039;28;20741;-80
2022/09/03 10:56:33;;;;;;;8.50;7.15;;;;;;;;;;5099143;28;20305;-80
2022/09/03 10:59:05;;;;;;;8.32;7.53;;;;;;;;;;5091020;28;20297;-78
2022/09/03 11:01:38;;;;;;;9.90;7.90;;;;;;;;;;5101623;28;20677;-78
2022/09/03 11:04:14;;;;;;;9.95;7.20;;;;;;;;;;5106068;28;20224;-77
2022/09/03 11:06:47;;;;;;;8.68;6.78;;;;;;;;;;5104948;28;20225;-78
2022/09/03 11:09:19;;;;;;;7.75;6.40;;;;;;;;;;5100864;28;20222;-78
2022/09/03 11:11:48;;;;;;;6.70;5.90;;;;;;;;;;5100522;28;20356;-77
2022/09/03 11:14:17;;;;;;;8.90;6.10;;;;;;;;;;5096956;28;20230;-79
2022/09/03 11:16:48;;;;;;;7.05;5.88;;;;;;;;;;5106952;28;20241;-79
2022/09/03 11:19:17;;;;;;;7.55;5.88;;;;;;;;;;5103417;28;20229;-79
2022/09/03 11:21:45;;;;;;;8.23;5.45;;;;;;;;;;5103080;28;20244;-79
2022/09/03 11:24:13;;;;;;;6.10;5.50;;;;;;;;;;5106685;28;20230;-79
2022/09/03 11:26:44;;;;;;;6.90;4.93;;;;;;;;;;5112483;28;20228;-79
2022/09/03 11:29:13;;;;;;;8.02;5.20;;;;;;;;;;5105579;28;20244;-79
2022/09/03 11:31:46;;;;;;;7.38;4.70;;;;;;;;;;5083655;28;20203;-80
2022/09/03 11:34:14;;;;;;;7.75;5.25;;;;;;;;;;5097072;28;20197;-80
2022/09/03 11:36:42;;;;;;;5.68;4.50;;;;;;;;;;5103763;28;20241;-80
2022/09/03 11:39:19;;;;;;;5.00;4.47;;;;;;;;;;5081916;28;20238;-81
2022/09/03 11:42:04;;;;;;;4.88;4.35;;;;;;;;;;5092830;28;20283;-82
2022/09/03 11:44:36;;;;;;;6.57;4.68;;;;;;;;;;5094083;28;20194;-81
2022/09/03 11:47:15;;;;;;;5.15;4.20;;;;;;;;;;5099362;28;20696;-80
2022/09/03 11:49:45;;;;;;;6.70;4.78;;;;;;;;;;5096960;28;20604;-81
2022/09/03 11:52:13;;;;;;;5.75;4.43;;;;;;;;;;5092725;28;20199;-81
2022/09/03 11:54:44;;;;;;;9.10;4.55;;;;;;;;;;5102174;28;20232;-82
2022/09/03 11:57:18;;;;;;;5.63;4.68;;;;;;;;;;5095195;28;20218;-82
2022/09/03 11:59:45;;;;;;;6.30;5.20;;;;;;;;;;5102311;28;20202;-82
2022/09/03 12:02:26;;;;;;;9.48;4.60;;;;;;;;;;5108659;28;20213;-82
2022/09/03 12:04:58;;;;;;;6.97;4.80;;;;;;;;;;5113025;28;20265;-82
2022/09/03 12:07:39;;;;;;;5.80;4.90;;;;;;;;;;5105188;28;20233;-82
2022/09/03 12:10:13;;;;;;;5.38;4.47;;;;;;;;;;5105894;28;20246;-82
2022/09/03 12:12:49;;;;;;;6.68;4.60;;;;;;;;;;5101930;28;20215;-82
2022/09/03 12:15:22;;;;;;;8.35;4.68;;;;;;;;;;5092440;28;20249;-81
2022/09/03 12:18:17;;;;;;;6.75;4.25;;;;;;;;;;5099142;28;20285;-80
2022/09/03 12:20:40;;;;;;;8.18;4.90;;;;;;;;;;5083104;28;20864;-79
2022/09/03 12:23:07;;;;;;;5.57;4.68;;;;;;;;;;5097734;28;20229;-81
2022/09/03 12:25:35;;;;;;;7.38;5.10;;;;;;;;;;5104855;28;20191;-81
2022/09/03 12:28:12;;;;;;;6.57;4.85;;;;;;;;;;5093720;28;20216;-82
2022/09/03 12:30:39;;;;;;;6.80;4.65;;;;;;;;;;5092572;28;20297;-82
2022/09/03 12:33:08;;;;;;;5.72;4.20;;;;;;;;;;5091643;28;20642;-80
2022/09/03 12:35:35;;;;;;;6.63;4.28;;;;;;;;;;5090440;28;20249;-80
2022/09/03 12:38:02;;;;;;;5.60;4.32;;;;;;;;;;5092878;28;20252;-81
2022/09/03 12:40:30;;;;;;;5.68;3.78;;;;;;;;;;5096095;28;20241;-80
2022/09/03 12:43:12;;;;;;;5.80;4.35;;;;;;;;;;5094033;28;20289;-80
2022/09/03 12:45:44;;;;;;;6.35;3.88;;;;;;;;;;5093160;28;21526;-81
2022/09/03 12:48:15;;;;;;;6.28;3.67;;;;;;;;;;5089280;28;20195;-81
2022/09/03 12:50:42;;;;;;;7.10;4.00;;;;;;;;;;5087675;28;20213;-82
2022/09/03 12:53:11;;;;;;;8.07;3.95;;;;;;;;;;5088641;28;20256;-84
2022/09/03 12:55:43;;;;;;;4.82;3.72;;;;;;;;;;5093369;28;20217;-81
2022/09/03 12:58:12;;;;;;;4.63;3.90;;;;;;;;;;5088676;28;20309;-81
2022/09/03 13:00:42;;;;;;;6.80;3.65;;;;;;;;;;5093799;28;20678;-81
2022/09/03 13:03:13;;;;;;;5.38;3.65;;;;;;;;;;5091857;28;20696;-82
2022/09/03 13:05:43;;;;;;;5.97;3.75;;;;;;;;;;5096059;28;20639;-82
2022/09/03 13:08:11;;;;;;;6.53;3.97;;;;;;;;;;5091663;28;20296;-82
2022/09/03 13:10:41;;;;;;;5.40;3.60;;;;;;;;;;5088445;28;20721;-82
2022/09/03 13:13:18;;;;;;;5.65;3.70;;;;;;;;;;5087633;28;20205;-82
2022/09/03 13:15:56;;;;;;;4.63;3.60;;;;;;;;;;5087430;28;20223;-82
2022/09/03 13:18:28;;;;;;;7.05;4.05;;;;;;;;;;5100452;28;20237;-81
2022/09/03 13:21:08;;;;;;;6.55;3.90;;;;;;;;;;5100302;28;20281;-84
2022/09/03 13:23:39;;;;;;;5.90;3.80;;;;;;;;;;5094848;28;20194;-83
2022/09/03 13:26:15;;;;;;;6.40;3.95;;;;;;;;;;5096487;28;20222;-83
2022/09/03 13:28:48;;;;;;;5.47;3.70;;;;;;;;;;5098334;28;20204;-83
2022/09/03 13:31:25;;;;;;;7.18;3.60;;;;;;;;;;5088631;28;20203;-84
2022/09/03 13:33:55;;;;;;;5.72;3.60;;;;;;;;;;5085256;28;20202;-86
2022/09/03 13:36:26;;;;;;;4.93;3.22;;;;;;;;;;5100658;28;20295;-84
2022/09/03 13:38:56;;;;;;;6.07;3.17;;;;;;;;;;5106211;28;20301;-85
2022/09/03 13:41:33;;;;;;;5.85;3.25;;;;;;;;;;5090768;28;20226;-84
2022/09/03 13:44:04;;;;;;;5.35;3.40;;;;;;;;;;5096866;28;20198;-85
2022/09/03 13:46:33;;;;;;;4.88;2.80;;;;;;;;;;5108194;28;20277;-84
2022/09/03 13:51:52;;;;;;;5.47;3.17;;;;;;;;;;5043551;28;20299;-85
2022/09/03 13:54:21;;;;;;;3.60;3.08;;;;;;;;;;5037669;28;20200;-83
2022/09/03 13:56:52;;;;;;;4.68;2.67;;;;;;;;;;5043591;28;20228;-84
2022/09/03 13:59:24;;;;;;;3.95;3.08;;;;;;;;;;5047442;28;20238;-84
2022/09/03 14:01:58;;;;;;;5.15;3.15;;;;;;;;;;5040199;28;20304;-84
2022/09/03 14:04:30;;;;;;;3.20;2.53;;;;;;;;;;5039111;28;20241;-84
2022/09/03 14:07:01;;;;;;;5.63;3.05;;;;;;;;;;5045616;28;20301;-84
2022/09/03 14:09:34;;;;;;;3.67;2.72;;;;;;;;;;5040292;28;20208;-84
2022/09/03 14:12:05;;;;;;;5.10;2.88;;;;;;;;;;5007154;28;20292;-83
2022/09/03 14:14:38;;;;;;;5.80;2.70;;;;;;;;;;5048057;28;20196;-84
2022/09/03 14:17:11;;;;;;;5.28;2.92;;;;;;;;;;5041460;28;20246;-83
2022/09/03 14:19:43;;;;;;;6.45;2.95;;;;;;;;;;5039342;28;21151;-83
2022/09/03 14:22:14;;;;;;;5.38;2.65;;;;;;;;;;5033731;28;20283;-83
2022/09/03 14:24:45;;;;;;;4.53;2.70;;;;;;;;;;5047696;28;20197;-84
2022/09/03 14:27:13;;;;;;;4.75;2.67;;;;;;;;;;5022683;28;20201;-83
2022/09/03 14:29:50;;;;;;;4.18;2.70;;;;;;;;;;5074014;28;20237;-84
2022/09/03 14:32:24;;;;;;;3.35;2.28;;;;;;;;;;5112353;28;20194;-83
2022/09/03 14:35:01;;;;;;;6.43;2.75;;;;;;;;;;5095361;28;20234;-81
2022/09/03 14:37:41;;;;;;;4.32;2.70;;;;;;;;;;5102120;28;20312;-81
2022/09/03 14:40:13;;;;;;;3.28;2.42;;;;;;;;;;5103846;28;20229;-85
2022/09/03 14:42:58;;;;;;;5.78;2.97;;;;;;;;;;5091796;28;20713;-85
2022/09/03 14:45:49;;;;;;;6.22;2.50;;;;;;;;;;5096815;28;20202;-85
2022/09/03 14:48:30;;;;;;;4.78;2.53;;;;;;;;;;5100723;28;20191;-85